createdAt,value
2022-09-06T00:02:10.743Z,6.27
2022-09-06T00:04:40.609Z,6.17
2022-09-06T00:07:09.827Z,6.90
2022-09-06T00:09:38.347Z,6.47
2022-09-06T00:12:07.268Z,6.57
2022-09-06T00:14:38.662Z,6.27
2022-09-06T00:17:07.764Z,6.30
2022-09-06T00:19:36.708Z,5.93
2022-09-06T00:22:06.212Z,7.13
2022-09-06T00:24:37.465Z,6.00
2022-09-06T00:27:07.511Z,6.30
2022-09-06T00:29:38.593Z,6.80
2022-09-06T00:32:09.615Z,6.97
2022-09-06T00:34:39.820Z,6.27
2022-09-06T00:37:09.138Z,6.70
2022-09-06T00:39:40.147Z,5.97
2022-09-06T00:42:10.198Z,6.60
2022-09-06T00:44:38.799Z,6.70
2022-09-06T00:47:09.865Z,7.70
2022-09-06T00:49:42.694Z,6.50
2022-09-06T00:52:13.489Z,7.20
2022-09-06T00:54:42.877Z,7.27
2022-09-06T00:57:12.348Z,8.33
2022-09-06T00:59:42.861Z,8.20
2022-09-06T01:02:13.419Z,7.43
2022-09-06T01:04:44.909Z,8.00
2022-09-06T01:07:19.748Z,7.27
2022-09-06T01:09:58.826Z,6.70
2022-09-06T01:12:42.173Z,6.50
2022-09-06T01:15:19.474Z,6.43
2022-09-06T01:17:56.926Z,7.30
2022-09-06T01:20:43.226Z,6.13
2022-09-06T01:23:39.409Z,7.20
2022-09-06T01:26:25.040Z,6.90
2022-09-06T01:28:56.267Z,6.07
2022-09-06T01:31:29.261Z,6.23
2022-09-06T01:34:13.920Z,6.10
2022-09-06T01:37:08.272Z,6.53
2022-09-06T01:39:40.012Z,6.50
2022-09-06T01:42:10.979Z,6.70
2022-09-06T01:44:43.446Z,6.80
2022-09-06T01:47:22.269Z,6.80
2022-09-06T01:50:22.971Z,6.50
2022-09-06T01:52:58.902Z,5.57
2022-09-06T01:55:32.298Z,7.93
2022-09-06T01:58:14.914Z,6.57
2022-09-06T02:00:49.641Z,7.30
2022-09-06T02:03:27.403Z,6.70
2022-09-06T02:05:57.601Z,7.20
2022-09-06T02:08:29.302Z,6.87
2022-09-06T02:11:00.856Z,7.73
2022-09-06T02:13:32.430Z,7.70
2022-09-06T02:16:05.780Z,7.07
2022-09-06T02:18:39.635Z,7.80
2022-09-06T02:21:10.531Z,7.30
2022-09-06T02:23:41.611Z,7.40
2022-09-06T02:26:13.992Z,7.00
2022-09-06T02:28:42.985Z,7.13
2022-09-06T02:31:18.023Z,7.60
2022-09-06T02:33:47.724Z,7.70
2022-09-06T02:36:17.679Z,7.00
2022-09-06T02:38:47.145Z,7.70
2022-09-06T02:41:19.374Z,7.10
2022-09-06T02:43:48.885Z,7.93
2022-09-06T02:46:20.969Z,8.10
2022-09-06T02:48:50.279Z,7.90
2022-09-06T02:51:19.258Z,6.53
2022-09-06T02:53:48.838Z,7.80
2022-09-06T02:56:18.103Z,6.83
2022-09-06T02:58:47.626Z,7.93
2022-09-06T03:01:16.058Z,7.40
2022-09-06T03:03:47.210Z,7.87
2022-09-06T03:06:15.971Z,7.63
2022-09-06T03:08:45.468Z,7.50
2022-09-06T03:11:14.300Z,8.00
2022-09-06T03:13:43.834Z,7.80
2022-09-06T03:16:12.046Z,8.27
2022-09-06T03:18:41.881Z,7.90
2022-09-06T03:21:12.426Z,8.23
2022-09-06T03:23:41.985Z,8.47
2022-09-06T03:26:11.074Z,7.87
2022-09-06T03:28:40.443Z,7.53
2022-09-06T03:31:09.232Z,8.33
2022-09-06T03:33:39.997Z,7.73
2022-09-06T03:36:09.300Z,7.57
2022-09-06T03:38:41.145Z,8.20
2022-09-06T03:41:10.035Z,7.50
2022-09-06T03:43:38.627Z,7.60
2022-09-06T03:46:07.380Z,7.80
2022-09-06T03:48:36.612Z,7.30
2022-09-06T03:51:05.105Z,7.47
2022-09-06T03:53:35.539Z,7.10
2022-09-06T03:56:05.712Z,7.90
2022-09-06T03:58:35.146Z,7.50
2022-09-06T04:01:08.118Z,8.20
2022-09-06T04:03:36.879Z,7.80
2022-09-06T04:06:06.582Z,7.57
2022-09-06T04:08:35.480Z,8.00
2022-09-06T04:11:06.238Z,7.40
2022-09-06T04:13:35.436Z,8.50
2022-09-06T04:16:05.056Z,8.20
2022-09-06T04:18:33.521Z,8.43
2022-09-06T04:21:02.566Z,7.90
2022-09-06T04:23:31.219Z,7.73
2022-09-06T04:26:00.585Z,8.10
2022-09-06T04:28:30.333Z,7.97
2022-09-06T04:31:04.346Z,8.43
2022-09-06T04:33:34.972Z,8.50
2022-09-06T04:36:08.287Z,8.30
2022-09-06T04:38:38.957Z,8.60
2022-09-06T04:41:22.901Z,8.17
2022-09-06T04:44:20.582Z,8.60
2022-09-06T04:47:12.962Z,8.80
2022-09-06T04:49:53.940Z,8.23
2022-09-06T04:52:36.158Z,9.50
2022-09-06T04:56:03.393Z,8.20
2022-09-06T05:03:30.741Z,10.00
2022-09-06T05:06:22.200Z,11.63
2022-09-06T05:08:57.589Z,10.10
2022-09-06T05:11:48.043Z,9.93
2022-09-06T05:14:17.851Z,40.67
2022-09-06T05:17:04.025Z,23.80
2022-09-06T05:19:48.111Z,66.77
2022-09-06T05:22:26.126Z,64.97
2022-09-06T05:25:10.491Z,23.37
2022-09-06T05:27:57.918Z,57.50
2022-09-06T05:31:06.397Z,27.97
2022-09-06T05:34:03.587Z,17.70
2022-09-06T05:36:42.003Z,84.57
2022-09-06T05:39:14.651Z,57.83
2022-09-06T05:41:44.715Z,33.63
2022-09-06T05:44:13.499Z,36.53
2022-09-06T05:46:45.313Z,14.63
2022-09-06T05:49:15.275Z,17.23
2022-09-06T05:51:45.606Z,12.80
2022-09-06T05:54:14.999Z,8.97
2022-09-06T05:56:44.790Z,11.53
2022-09-06T05:59:13.318Z,11.20
2022-09-06T06:01:49.164Z,9.50
2022-09-06T06:04:18.748Z,10.00
2022-09-06T06:06:50.219Z,9.33
2022-09-06T06:09:20.763Z,11.07
2022-09-06T06:11:50.540Z,12.20
2022-09-06T06:14:19.441Z,16.07
2022-09-06T06:16:48.848Z,10.07
2022-09-06T06:19:17.224Z,9.67
2022-09-06T06:21:47.153Z,8.93
2022-09-06T06:24:17.869Z,15.60
2022-09-06T06:26:47.425Z,20.27
2022-09-06T06:29:16.793Z,16.50
2022-09-06T06:31:46.456Z,11.27
2022-09-06T06:34:16.604Z,7.97
2022-09-06T06:36:46.284Z,8.37
2022-09-06T06:39:15.528Z,8.40
2022-09-06T06:41:46.534Z,8.37
2022-09-06T06:44:38.426Z,7.97
2022-09-06T06:47:07.665Z,7.43
2022-09-06T06:49:36.605Z,7.90
2022-09-06T06:52:06.865Z,8.80
2022-09-06T06:54:36.503Z,9.13
2022-09-06T06:57:09.516Z,8.23
2022-09-06T06:59:38.526Z,7.60
2022-09-06T07:02:07.878Z,8.13
2022-09-06T07:04:39.802Z,9.97
2022-09-06T07:12:48.457Z,8.40
2022-09-06T07:15:17.371Z,9.10
2022-09-06T07:17:45.703Z,9.93
2022-09-06T07:20:14.976Z,9.47
2022-09-06T07:22:43.742Z,9.40
2022-09-06T07:25:16.511Z,8.57
2022-09-06T07:27:50.514Z,8.97
2022-09-06T07:30:20.610Z,9.93
2022-09-06T07:32:49.129Z,10.33
2022-09-06T07:35:20.523Z,9.80
2022-09-06T07:37:56.148Z,9.27
2022-09-06T07:40:24.528Z,13.90
2022-09-06T07:42:54.500Z,11.70
2022-09-06T07:45:22.777Z,12.20
2022-09-06T07:53:16.708Z,10.07
2022-09-06T07:55:48.539Z,10.60
2022-09-06T07:58:18.155Z,10.40
2022-09-06T08:00:46.416Z,10.67
2022-09-06T08:03:16.037Z,10.37
2022-09-06T08:11:25.063Z,10.37
2022-09-06T08:13:57.169Z,10.50
2022-09-06T08:16:28.093Z,10.43
2022-09-06T08:18:59.228Z,9.90
2022-09-06T08:21:30.188Z,9.23
2022-09-06T08:23:59.596Z,9.13
2022-09-06T08:26:29.820Z,8.80
2022-09-06T08:29:01.066Z,8.17
2022-09-06T08:31:32.350Z,9.50
2022-09-06T08:34:02.223Z,8.27
2022-09-06T08:36:31.861Z,9.00
2022-09-06T08:39:01.490Z,10.30
2022-09-06T08:41:33.168Z,10.17
2022-09-06T08:46:58.945Z,10.50
2022-09-06T08:49:36.646Z,9.40
2022-09-06T08:52:17.812Z,8.63
2022-09-06T08:54:53.831Z,8.43
2022-09-06T08:57:35.021Z,9.33
2022-09-06T09:00:13.473Z,8.37
2022-09-06T09:02:51.881Z,11.57
2022-09-06T09:05:24.812Z,11.80
2022-09-06T09:08:09.537Z,9.30
2022-09-06T09:10:43.693Z,9.80
2022-09-06T09:13:32.536Z,9.00
2022-09-06T09:16:06.683Z,9.40
2022-09-06T09:18:38.544Z,8.50
2022-09-06T09:21:07.614Z,7.93
2022-09-06T09:23:38.312Z,9.33
2022-09-06T09:26:10.992Z,9.73
2022-09-06T09:28:40.565Z,12.10
2022-09-06T09:31:11.143Z,10.20
2022-09-06T09:33:41.238Z,10.37
2022-09-06T09:36:12.902Z,9.90
2022-09-06T09:38:44.630Z,8.80
2022-09-06T09:41:26.737Z,9.87
2022-09-06T09:44:02.271Z,10.20
2022-09-06T09:46:35.995Z,8.50
2022-09-06T09:49:10.571Z,9.80
2022-09-06T09:51:39.954Z,9.40
2022-09-06T09:54:11.228Z,10.30
2022-09-06T09:56:47.360Z,8.93
2022-09-06T09:59:26.013Z,8.13
2022-09-06T10:02:00.091Z,10.30
2022-09-06T10:04:44.244Z,8.47
2022-09-06T10:07:16.474Z,8.20
2022-09-06T10:09:47.981Z,12.43
2022-09-06T10:12:30.426Z,10.30
2022-09-06T10:15:02.528Z,8.43
2022-09-06T10:17:37.439Z,10.23
2022-09-06T10:20:09.410Z,9.10
2022-09-06T10:22:48.578Z,7.90
2022-09-06T10:25:39.725Z,9.97
2022-09-06T10:28:41.981Z,8.00
2022-09-06T10:31:43.674Z,9.10
2022-09-06T10:34:40.373Z,9.90
2022-09-06T10:37:18.812Z,8.67
2022-09-06T10:39:55.452Z,7.80
2022-09-06T10:42:31.526Z,8.50
2022-09-06T10:45:25.450Z,10.67
2022-09-06T10:48:01.487Z,9.30
2022-09-06T10:50:40.288Z,8.13
2022-09-06T10:53:12.900Z,9.40
2022-09-06T10:55:46.260Z,9.10
2022-09-06T10:58:21.553Z,10.93
2022-09-06T11:00:59.188Z,8.07
2022-09-06T11:06:30.159Z,8.30
2022-09-06T11:09:04.783Z,8.40
2022-09-06T11:11:40.163Z,7.63
2022-09-06T11:14:13.851Z,7.90
2022-09-06T11:16:47.936Z,7.17
2022-09-06T11:19:21.720Z,8.60
2022-09-06T11:22:24.397Z,8.40
2022-09-06T11:25:23.298Z,8.50
2022-09-06T11:27:57.991Z,8.77
2022-09-06T11:30:29.939Z,8.73
2022-09-06T11:33:10.092Z,8.90
2022-09-06T11:35:38.668Z,8.60
2022-09-06T11:38:17.429Z,8.33
2022-09-06T11:40:50.049Z,9.63
2022-09-06T11:43:22.806Z,8.27
2022-09-06T11:45:56.797Z,8.77
2022-09-06T11:48:52.968Z,9.17
2022-09-06T11:51:40.542Z,9.90
2022-09-06T11:54:23.041Z,8.30
2022-09-06T11:56:57.217Z,8.20
2022-09-06T11:59:40.441Z,7.80
2022-09-06T12:02:31.690Z,8.10
2022-09-06T12:05:19.943Z,8.30
2022-09-06T12:08:30.571Z,10.90
2022-09-06T12:11:02.281Z,7.80
2022-09-06T12:13:53.808Z,7.80
2022-09-06T12:16:23.669Z,10.80
2022-09-06T12:19:00.999Z,9.07
2022-09-06T12:21:46.356Z,10.20
2022-09-06T12:24:53.995Z,8.63
2022-09-06T12:27:25.682Z,7.27
2022-09-06T12:29:59.552Z,8.10
2022-09-06T12:32:33.712Z,6.90
2022-09-06T12:38:02.760Z,8.10
2022-09-06T12:40:36.255Z,7.17
2022-09-06T12:43:05.857Z,7.83
2022-09-06T12:45:37.329Z,8.80
2022-09-06T12:48:08.663Z,7.40
2022-09-06T12:50:37.269Z,7.50
2022-09-06T12:53:22.766Z,8.57
2022-09-06T12:56:04.431Z,9.27
2022-09-06T12:58:32.760Z,8.40
2022-09-06T13:01:12.477Z,6.23
2022-09-06T13:03:42.985Z,7.97
2022-09-06T13:06:16.075Z,7.10
2022-09-06T13:08:47.631Z,9.20
2022-09-06T13:11:21.245Z,8.23
2022-09-06T13:13:50.985Z,7.10
2022-09-06T13:16:26.341Z,8.50
2022-09-06T13:18:55.417Z,7.63
2022-09-06T13:21:31.275Z,7.10
2022-09-06T13:24:04.086Z,7.30
2022-09-06T13:26:40.517Z,7.00
2022-09-06T13:29:13.282Z,6.47
2022-09-06T13:31:47.060Z,6.17
2022-09-06T13:34:22.697Z,6.77
2022-09-06T13:36:53.445Z,6.43
2022-09-06T13:39:33.152Z,7.10
2022-09-06T13:42:05.779Z,8.20
2022-09-06T13:44:35.789Z,14.00
2022-09-06T13:47:07.116Z,8.37
2022-09-06T13:49:35.981Z,10.00
2022-09-06T13:52:05.846Z,8.33
2022-09-06T13:54:35.645Z,6.90
2022-09-06T13:57:05.223Z,8.00
2022-09-06T13:59:36.104Z,6.93
2022-09-06T14:02:10.054Z,6.80
2022-09-06T14:04:40.505Z,5.83
2022-09-06T14:07:10.343Z,7.10
2022-09-06T14:09:39.151Z,7.30
2022-09-06T14:12:09.312Z,8.97
2022-09-06T14:14:38.352Z,6.67
2022-09-06T14:17:08.975Z,7.30
2022-09-06T14:19:40.804Z,6.70
2022-09-06T14:22:10.134Z,5.80
2022-09-06T14:24:40.933Z,6.40
2022-09-06T14:27:10.554Z,6.30
2022-09-06T14:29:39.458Z,7.20
2022-09-06T14:32:10.162Z,7.10
2022-09-06T14:34:40.836Z,8.30
2022-09-06T14:37:13.415Z,7.37
2022-09-06T14:39:42.204Z,6.90
2022-09-06T14:42:11.158Z,6.57
2022-09-06T14:44:39.472Z,6.73
2022-09-06T14:47:09.601Z,6.20
2022-09-06T14:49:40.924Z,5.90
2022-09-06T14:52:10.028Z,5.97
2022-09-06T14:54:38.442Z,6.37
2022-09-06T14:57:07.111Z,6.33
2022-09-06T14:59:35.763Z,6.50
2022-09-06T15:02:05.515Z,6.57
2022-09-06T15:04:37.604Z,6.00
2022-09-06T15:07:06.232Z,6.47
2022-09-06T15:09:34.600Z,5.50
2022-09-06T15:12:03.304Z,5.87
2022-09-06T15:14:31.659Z,6.73
2022-09-06T15:17:00.684Z,5.63
2022-09-06T15:19:30.226Z,6.47
2022-09-06T15:22:00.747Z,6.50
2022-09-06T15:24:29.414Z,6.47
2022-09-06T15:26:58.780Z,6.00
2022-09-06T15:29:27.522Z,6.60
2022-09-06T15:31:56.287Z,6.20
2022-09-06T15:34:26.960Z,6.97
2022-09-06T15:36:56.854Z,6.60
2022-09-06T15:39:26.852Z,5.73
2022-09-06T15:41:57.215Z,6.30
2022-09-06T15:44:26.834Z,7.13
2022-09-06T15:46:57.820Z,6.57
2022-09-06T15:49:28.739Z,6.27
2022-09-06T15:51:58.352Z,5.70
2022-09-06T15:54:48.277Z,5.63
2022-09-06T15:57:18.548Z,6.40
2022-09-06T15:59:46.954Z,6.00
2022-09-06T16:02:18.500Z,6.23
2022-09-06T16:04:47.050Z,6.87
2022-09-06T16:07:16.369Z,6.30
2022-09-06T16:09:45.901Z,5.80
2022-09-06T16:12:14.405Z,6.10
2022-09-06T16:14:42.647Z,6.50
2022-09-06T16:17:12.521Z,6.90
2022-09-06T16:19:41.235Z,7.10
2022-09-06T16:22:10.542Z,7.00
2022-09-06T16:24:39.270Z,6.60
2022-09-06T16:27:09.546Z,6.20
2022-09-06T16:29:38.485Z,6.50
2022-09-06T16:32:07.127Z,5.63
2022-09-06T16:34:38.004Z,6.40
2022-09-06T16:37:08.245Z,5.77
2022-09-06T16:39:38.206Z,6.80
2022-09-06T16:42:09.236Z,6.20
2022-09-06T16:44:38.452Z,7.03
2022-09-06T16:47:07.430Z,6.40
2022-09-06T16:49:36.014Z,5.83
2022-09-06T16:52:05.370Z,5.57
2022-09-06T16:54:34.165Z,5.40
2022-09-06T16:57:03.440Z,5.30
2022-09-06T16:59:33.066Z,4.73
2022-09-06T17:02:02.189Z,5.13
2022-09-06T17:04:30.700Z,4.93
2022-09-06T17:06:59.161Z,4.90
2022-09-06T17:09:27.430Z,5.07
2022-09-06T17:11:56.915Z,4.13
2022-09-06T17:14:25.205Z,4.80
2022-09-06T17:17:07.719Z,4.60
2022-09-06T17:19:37.944Z,4.23
2022-09-06T17:22:07.450Z,4.60
2022-09-06T17:24:35.897Z,4.80
2022-09-06T17:27:06.150Z,3.97
2022-09-06T17:29:35.428Z,4.13
2022-09-06T17:32:10.432Z,3.73
2022-09-06T17:34:41.987Z,4.30
2022-09-06T17:37:11.640Z,4.20
2022-09-06T17:39:40.981Z,3.73
2022-09-06T17:42:11.162Z,3.87
2022-09-06T17:44:39.903Z,3.73
2022-09-06T17:47:13.632Z,4.30
2022-09-06T17:49:42.862Z,4.23
2022-09-06T17:52:13.886Z,4.40
2022-09-06T17:54:42.408Z,5.10
2022-09-06T17:57:12.132Z,4.63
2022-09-06T17:59:40.883Z,4.40
2022-09-06T18:02:12.271Z,3.60
2022-09-06T18:04:40.977Z,4.37
2022-09-06T18:07:10.887Z,4.10
2022-09-06T18:09:41.073Z,3.97
2022-09-06T18:12:11.343Z,4.40
2022-09-06T18:14:39.874Z,3.33
2022-09-06T18:17:09.921Z,4.03
2022-09-06T18:19:42.163Z,4.17
2022-09-06T18:22:12.091Z,4.13
2022-09-06T18:24:40.851Z,4.30
2022-09-06T18:27:10.928Z,3.90
2022-09-06T18:29:41.061Z,3.97
2022-09-06T18:32:11.035Z,3.50
2022-09-06T18:34:43.419Z,3.60
2022-09-06T18:37:13.538Z,3.83
2022-09-06T18:39:43.417Z,3.73
2022-09-06T18:42:12.847Z,3.97
2022-09-06T18:44:41.632Z,3.50
2022-09-06T18:47:12.822Z,3.50
2022-09-06T18:49:44.307Z,4.80
2022-09-06T18:52:14.169Z,4.53
2022-09-06T18:54:43.824Z,3.90
2022-09-06T18:57:12.872Z,4.80
2022-09-06T18:59:42.628Z,4.50
2022-09-06T19:02:12.542Z,4.90
2022-09-06T19:04:42.635Z,4.90
2022-09-06T19:07:11.720Z,5.00
2022-09-06T19:09:42.787Z,4.70
2022-09-06T19:12:12.460Z,4.60
2022-09-06T19:14:41.448Z,4.70
2022-09-06T19:17:10.804Z,4.87
2022-09-06T19:19:39.504Z,4.73
2022-09-06T19:22:10.159Z,4.00
2022-09-06T19:24:40.443Z,4.43
2022-09-06T19:27:10.975Z,3.97
2022-09-06T19:29:39.654Z,4.40
2022-09-06T19:32:08.387Z,4.27
2022-09-06T19:34:38.265Z,4.33
2022-09-06T19:37:09.868Z,4.70
2022-09-06T19:39:41.120Z,3.87
2022-09-06T19:42:21.744Z,4.40
2022-09-06T19:45:05.121Z,3.50
2022-09-06T19:47:33.895Z,4.27
2022-09-06T19:50:05.112Z,3.73
2022-09-06T19:52:37.776Z,4.07
2022-09-06T19:55:08.178Z,4.43
2022-09-06T19:57:41.245Z,5.10
2022-09-06T20:00:12.353Z,4.73
2022-09-06T20:02:43.681Z,4.20
2022-09-06T20:05:15.871Z,4.50
2022-09-06T20:07:47.321Z,4.30
2022-09-06T20:10:17.313Z,4.03
2022-09-06T20:12:46.378Z,3.50
2022-09-06T20:15:20.620Z,4.40
2022-09-06T20:17:54.112Z,3.90
2022-09-06T20:20:26.161Z,4.17
2022-09-06T20:23:00.753Z,3.90
2022-09-06T20:25:32.234Z,4.50
2022-09-06T20:28:02.970Z,4.57
2022-09-06T20:30:32.252Z,4.13
2022-09-06T20:33:00.847Z,4.47
2022-09-06T20:35:31.574Z,4.23
2022-09-06T20:38:01.761Z,4.30
2022-09-06T20:40:31.226Z,4.93
2022-09-06T20:43:03.235Z,4.30
2022-09-06T20:45:34.037Z,5.00
2022-09-06T20:48:04.648Z,5.20
2022-09-06T20:50:34.958Z,4.17
2022-09-06T20:53:04.993Z,5.00
2022-09-06T20:55:33.582Z,5.63
2022-09-06T20:58:02.888Z,4.70
2022-09-06T21:00:32.584Z,4.90
2022-09-06T21:03:00.902Z,4.27
2022-09-06T21:05:29.824Z,4.63
2022-09-06T21:08:08.131Z,5.03
2022-09-06T21:10:39.844Z,4.23
2022-09-06T21:13:10.213Z,4.20
2022-09-06T21:15:41.062Z,4.20
2022-09-06T21:18:10.332Z,4.20
2022-09-06T21:20:42.524Z,4.20
2022-09-06T21:23:11.882Z,4.10
2022-09-06T21:25:50.174Z,4.10
2022-09-06T21:28:18.398Z,3.90
2022-09-06T21:30:47.624Z,3.60
2022-09-06T21:33:15.770Z,3.47
2022-09-06T21:35:44.536Z,3.97
2022-09-06T21:38:12.764Z,4.10
2022-09-06T21:40:43.131Z,4.50
2022-09-06T21:43:11.491Z,4.63
2022-09-06T21:45:39.920Z,4.73
2022-09-06T21:48:08.236Z,4.87
2022-09-06T21:50:36.984Z,4.30
2022-09-06T21:53:05.215Z,5.30
2022-09-06T21:55:33.901Z,4.40
2022-09-06T21:58:03.566Z,4.70
2022-09-06T22:00:33.035Z,4.93
2022-09-06T22:03:01.234Z,4.70
2022-09-06T22:05:29.581Z,4.23
2022-09-06T22:07:59.252Z,4.77
2022-09-06T22:10:30.899Z,4.80
2022-09-06T22:13:01.947Z,4.60
2022-09-06T22:15:40.469Z,4.97
2022-09-06T22:18:09.138Z,4.40
2022-09-06T22:20:37.952Z,4.83
2022-09-06T22:23:12.914Z,4.97
2022-09-06T22:25:53.097Z,4.50
2022-09-06T22:28:21.700Z,4.77
2022-09-06T22:30:55.370Z,4.70
2022-09-06T22:33:25.987Z,5.00
2022-09-06T22:35:58.618Z,4.73
2022-09-06T22:38:26.871Z,5.47
2022-09-06T22:40:57.217Z,4.60
2022-09-06T22:43:26.153Z,4.30
2022-09-06T22:46:04.781Z,4.93
2022-09-06T22:48:33.108Z,4.40
2022-09-06T22:51:03.892Z,3.53
2022-09-06T22:53:32.426Z,4.20
2022-09-06T22:56:01.539Z,4.70
2022-09-06T22:58:30.067Z,4.40
2022-09-06T23:01:07.270Z,4.63
2022-09-06T23:03:39.275Z,4.40
2022-09-06T23:06:07.689Z,4.30
2022-09-06T23:08:36.719Z,4.10
2022-09-06T23:11:12.928Z,4.40
2022-09-06T23:13:43.785Z,4.50
2022-09-06T23:16:15.325Z,4.00
2022-09-06T23:18:43.561Z,4.67
2022-09-06T23:21:14.920Z,4.27
2022-09-06T23:23:46.186Z,4.50
2022-09-06T23:26:16.170Z,4.47
2022-09-06T23:28:44.806Z,4.77
2022-09-06T23:31:16.972Z,4.73
2022-09-06T23:33:45.486Z,4.77
2022-09-06T23:36:14.943Z,3.90
2022-09-06T23:38:43.759Z,4.90
2022-09-06T23:41:13.568Z,4.47
2022-09-06T23:43:42.934Z,5.00
2022-09-06T23:46:13.238Z,5.20
2022-09-06T23:48:42.998Z,5.10
2022-09-06T23:51:12.784Z,5.00
2022-09-06T23:53:41.299Z,5.03
2022-09-06T23:56:11.349Z,4.80
2022-09-06T23:58:40.208Z,5.70
